createdAt,value
2019-03-09T00:02:07.246Z,5.67
2019-03-09T00:04:14.560Z,5.59
2019-03-09T00:06:21.868Z,5.59
2019-03-09T00:08:29.259Z,5.68
2019-03-09T00:10:36.589Z,5.59
2019-03-09T00:12:44.192Z,5.56
2019-03-09T00:14:51.611Z,5.55
2019-03-09T00:16:58.939Z,5.55
2019-03-09T00:19:07.762Z,5.54
2019-03-09T00:21:15.082Z,5.57
2019-03-09T00:23:41.176Z,5.54
2019-03-09T00:26:07.210Z,5.67
2019-03-09T00:28:23.122Z,5.64
2019-03-09T00:30:44.481Z,5.52
2019-03-09T00:32:51.810Z,5.50
2019-03-09T00:34:59.182Z,5.58
2019-03-09T00:37:06.658Z,5.60
2019-03-09T00:39:14.178Z,5.72
2019-03-09T00:41:21.816Z,5.58
2019-03-09T00:43:29.124Z,5.63
2019-03-09T00:45:36.507Z,5.57
2019-03-09T00:47:43.838Z,5.55
2019-03-09T00:49:51.238Z,5.56
2019-03-09T00:51:58.615Z,5.64
2019-03-09T00:54:06.050Z,5.56
2019-03-09T00:56:13.305Z,5.54
2019-03-09T00:58:20.634Z,5.38
2019-03-09T01:00:27.973Z,5.38
2019-03-09T01:02:35.224Z,5.45
2019-03-09T01:04:42.541Z,5.38
2019-03-09T01:06:49.895Z,5.38
2019-03-09T01:08:57.176Z,5.35
2019-03-09T01:11:04.709Z,5.34
2019-03-09T01:13:12.118Z,5.33
2019-03-09T01:15:19.428Z,5.41
2019-03-09T01:17:26.743Z,5.40
2019-03-09T01:19:34.079Z,5.43
2019-03-09T01:21:41.429Z,5.47
2019-03-09T01:23:48.773Z,5.41
2019-03-09T01:25:56.069Z,5.47
2019-03-09T01:28:03.390Z,5.39
2019-03-09T01:30:14.594Z,5.35
2019-03-09T01:32:22.067Z,5.42
2019-03-09T01:34:29.397Z,5.38
2019-03-09T01:36:36.739Z,5.31
2019-03-09T01:38:44.096Z,5.35
2019-03-09T01:40:52.243Z,5.29
2019-03-09T01:42:59.573Z,5.15
2019-03-09T01:45:08.250Z,5.17
2019-03-09T01:47:15.556Z,5.15
2019-03-09T01:49:22.950Z,5.12
2019-03-09T01:51:30.254Z,5.08
2019-03-09T01:53:37.487Z,5.03
2019-03-09T01:55:44.872Z,5.10
2019-03-09T01:57:52.238Z,5.04
2019-03-09T01:59:59.589Z,5.14
2019-03-09T02:02:07.144Z,4.98
2019-03-09T02:04:14.389Z,5.10
2019-03-09T02:06:21.944Z,5.07
2019-03-09T02:08:29.301Z,4.99
2019-03-09T02:10:36.635Z,5.01
2019-03-09T02:12:44.920Z,4.97
2019-03-09T02:14:52.300Z,5.01
2019-03-09T02:16:59.620Z,5.05
2019-03-09T02:19:07.999Z,4.95
2019-03-09T02:21:15.351Z,4.84
2019-03-09T02:23:22.706Z,4.84
2019-03-09T02:25:30.088Z,4.90
2019-03-09T02:27:37.395Z,4.83
2019-03-09T02:29:44.757Z,4.90
2019-03-09T02:31:52.047Z,4.82
2019-03-09T02:33:59.406Z,4.76
2019-03-09T02:36:07.036Z,4.74
2019-03-09T02:38:24.761Z,4.65
2019-03-09T02:40:32.085Z,4.70
2019-03-09T02:42:39.478Z,4.61
2019-03-09T02:44:46.787Z,4.70
2019-03-09T02:46:54.115Z,4.63
2019-03-09T02:49:01.407Z,4.45
2019-03-09T02:51:08.782Z,4.49
2019-03-09T02:53:16.077Z,4.37
2019-03-09T02:55:23.443Z,4.39
2019-03-09T02:57:30.661Z,4.53
2019-03-09T02:59:37.965Z,4.40
2019-03-09T03:02:02.604Z,4.33
2019-03-09T03:04:09.923Z,4.39
2019-03-09T03:06:17.207Z,4.48
2019-03-09T03:08:24.523Z,4.53
2019-03-09T03:10:32.444Z,4.33
2019-03-09T03:12:39.745Z,4.29
2019-03-09T03:14:47.066Z,4.26
2019-03-09T03:16:54.399Z,4.21
2019-03-09T03:19:01.603Z,4.20
2019-03-09T03:21:08.929Z,4.13
2019-03-09T03:23:16.256Z,4.01
2019-03-09T03:25:23.643Z,4.15
2019-03-09T03:27:30.927Z,4.10
2019-03-09T03:29:38.207Z,3.97
2019-03-09T03:31:45.542Z,3.97
2019-03-09T03:33:52.849Z,3.88
2019-03-09T03:36:00.195Z,3.84
2019-03-09T03:38:07.465Z,3.81
2019-03-09T03:40:15.834Z,3.88
2019-03-09T03:42:23.576Z,3.93
2019-03-09T03:44:30.883Z,3.81
2019-03-09T03:46:38.160Z,3.75
2019-03-09T03:48:45.514Z,3.75
2019-03-09T03:50:52.839Z,3.79
2019-03-09T03:53:00.124Z,3.77
2019-03-09T03:55:08.032Z,3.67
2019-03-09T03:57:15.620Z,3.68
2019-03-09T03:59:22.978Z,3.74
2019-03-09T04:01:30.406Z,3.74
2019-03-09T04:03:37.790Z,3.74
2019-03-09T04:05:45.556Z,3.77
2019-03-09T04:07:54.411Z,3.80
2019-03-09T04:10:02.081Z,3.71
2019-03-09T04:12:09.516Z,3.77
2019-03-09T04:14:16.854Z,3.85
2019-03-09T04:16:24.222Z,3.77
2019-03-09T04:18:31.504Z,3.70
2019-03-09T04:20:38.827Z,3.66
2019-03-09T04:22:46.166Z,3.73
2019-03-09T04:24:54.533Z,3.68
2019-03-09T04:27:01.844Z,3.62
2019-03-09T04:29:09.195Z,3.66
2019-03-09T04:31:16.547Z,3.66
2019-03-09T04:33:23.929Z,3.60
2019-03-09T04:35:31.263Z,3.63
2019-03-09T04:37:38.595Z,3.75
2019-03-09T04:39:45.919Z,3.64
2019-03-09T04:41:55.883Z,3.61
2019-03-09T04:44:03.241Z,3.57
2019-03-09T04:46:10.610Z,3.64
2019-03-09T04:48:17.966Z,3.60
2019-03-09T04:50:25.395Z,3.62
2019-03-09T04:52:32.672Z,3.55
2019-03-09T04:54:39.999Z,3.59
2019-03-09T04:56:47.431Z,3.55
2019-03-09T04:58:54.777Z,3.53
2019-03-09T05:01:02.187Z,3.53
2019-03-09T05:03:09.558Z,3.58
2019-03-09T05:05:17.397Z,3.56
2019-03-09T05:07:46.755Z,3.50
2019-03-09T05:10:06.633Z,3.59
2019-03-09T05:12:13.982Z,3.52
2019-03-09T05:14:26.785Z,3.50
2019-03-09T05:16:34.096Z,3.58
2019-03-09T05:18:41.380Z,3.58
2019-03-09T05:20:48.633Z,3.59
2019-03-09T05:22:56.012Z,3.57
2019-03-09T05:25:03.657Z,3.71
2019-03-09T05:27:10.908Z,3.65
2019-03-09T05:29:18.227Z,3.59
2019-03-09T05:31:25.613Z,3.64
2019-03-09T05:33:32.937Z,3.59
2019-03-09T05:35:40.316Z,3.63
2019-03-09T05:37:48.978Z,3.65
2019-03-09T05:39:56.315Z,3.62
2019-03-09T05:42:03.692Z,3.62
2019-03-09T05:44:11.022Z,3.59
2019-03-09T05:46:18.365Z,3.62
2019-03-09T05:48:25.699Z,3.60
2019-03-09T05:50:33.045Z,3.54
2019-03-09T05:52:40.749Z,3.58
2019-03-09T05:54:48.106Z,3.54
2019-03-09T05:56:55.413Z,3.54
2019-03-09T05:59:02.808Z,3.57
2019-03-09T06:01:10.445Z,3.55
2019-03-09T06:03:17.849Z,3.59
2019-03-09T06:06:08.326Z,3.65
2019-03-09T06:08:15.724Z,3.69
2019-03-09T06:10:22.959Z,3.68
2019-03-09T06:12:30.242Z,3.78
2019-03-09T06:14:37.758Z,3.82
2019-03-09T06:16:45.094Z,3.83
2019-03-09T06:18:52.548Z,3.86
2019-03-09T06:20:59.901Z,3.90
2019-03-09T06:23:07.355Z,3.91
2019-03-09T06:25:14.639Z,3.94
2019-03-09T06:27:22.009Z,3.97
2019-03-09T06:29:29.374Z,4.00
2019-03-09T06:31:36.915Z,4.02
2019-03-09T06:33:46.981Z,4.06
2019-03-09T06:35:59.420Z,4.07
2019-03-09T06:38:58.311Z,4.11
2019-03-09T06:41:05.940Z,4.16
2019-03-09T06:43:13.345Z,4.16
2019-03-09T06:45:21.650Z,4.19
2019-03-09T06:47:28.983Z,4.22
2019-03-09T06:49:36.368Z,4.24
2019-03-09T06:51:43.752Z,4.25
2019-03-09T06:53:52.051Z,4.24
2019-03-09T06:55:59.420Z,4.29
2019-03-09T06:58:06.848Z,4.35
2019-03-09T07:00:41.336Z,4.37
2019-03-09T07:02:48.728Z,4.38
2019-03-09T07:04:56.080Z,4.45
2019-03-09T07:07:03.390Z,4.51
2019-03-09T07:09:10.804Z,4.56
2019-03-09T07:11:18.283Z,4.59
2019-03-09T07:13:25.606Z,4.65
2019-03-09T07:15:42.127Z,4.70
2019-03-09T07:17:51.572Z,4.74
2019-03-09T07:19:58.835Z,4.78
2019-03-09T07:22:06.142Z,4.83
2019-03-09T07:24:13.636Z,4.89
2019-03-09T07:26:20.959Z,4.97
2019-03-09T07:28:28.298Z,5.05
2019-03-09T07:30:35.898Z,5.17
2019-03-09T07:32:43.506Z,5.22
2019-03-09T07:34:51.091Z,5.22
2019-03-09T07:36:58.533Z,5.26
2019-03-09T07:39:06.489Z,5.28
2019-03-09T07:41:13.996Z,5.36
2019-03-09T07:43:21.421Z,5.42
2019-03-09T07:45:28.851Z,5.48
2019-03-09T07:47:36.323Z,5.60
2019-03-09T07:49:43.716Z,5.61
2019-03-09T07:51:51.222Z,5.65
2019-03-09T07:53:59.651Z,5.69
2019-03-09T07:56:07.011Z,5.70
2019-03-09T07:58:14.934Z,5.75
2019-03-09T08:00:23.038Z,5.82
2019-03-09T08:02:30.529Z,5.89
2019-03-09T08:04:37.895Z,5.96
2019-03-09T08:06:45.334Z,6.02
2019-03-09T08:08:52.866Z,6.12
2019-03-09T08:11:00.279Z,6.17
2019-03-09T08:13:08.413Z,6.18
2019-03-09T08:15:18.169Z,6.15
2019-03-09T08:17:28.416Z,6.16
2019-03-09T08:19:35.783Z,6.20
2019-03-09T08:21:43.281Z,6.22
2019-03-09T08:23:50.726Z,6.25
2019-03-09T08:25:58.294Z,6.30
2019-03-09T08:28:05.899Z,6.29
2019-03-09T08:30:19.774Z,6.30
2019-03-09T08:32:27.202Z,6.33
2019-03-09T08:34:34.716Z,6.36
2019-03-09T08:36:42.258Z,6.42
2019-03-09T08:38:49.600Z,6.43
2019-03-09T08:40:57.266Z,6.47
2019-03-09T08:43:04.918Z,6.47
2019-03-09T08:45:13.629Z,6.54
2019-03-09T08:47:21.061Z,6.56
2019-03-09T08:49:28.461Z,6.64
2019-03-09T08:51:35.956Z,6.74
2019-03-09T08:53:43.466Z,6.84
2019-03-09T08:55:50.779Z,7.00
2019-03-09T08:57:58.140Z,7.14
2019-03-09T09:00:06.849Z,7.10
2019-03-09T09:02:16.182Z,7.07
2019-03-09T09:04:23.780Z,7.08
2019-03-09T09:06:31.326Z,7.31
2019-03-09T09:08:39.145Z,7.55
2019-03-09T09:10:46.511Z,7.75
2019-03-09T09:12:54.214Z,8.01
2019-03-09T09:15:01.763Z,7.89
2019-03-09T09:17:09.363Z,8.16
2019-03-09T09:19:17.063Z,8.27
2019-03-09T09:21:24.618Z,8.20
2019-03-09T09:23:32.214Z,8.44
2019-03-09T09:25:39.773Z,8.49
2019-03-09T09:27:47.262Z,8.44
2019-03-09T09:29:54.714Z,8.85
2019-03-09T09:32:02.276Z,8.83
2019-03-09T09:34:09.856Z,8.89
2019-03-09T09:36:17.533Z,8.96
2019-03-09T09:38:25.393Z,8.79
2019-03-09T09:40:33.095Z,8.83
2019-03-09T09:42:40.572Z,8.76
2019-03-09T09:44:47.982Z,8.87
2019-03-09T09:46:55.525Z,8.80
2019-03-09T09:49:02.962Z,8.83
2019-03-09T09:51:10.430Z,8.79
2019-03-09T09:53:17.972Z,8.83
2019-03-09T09:55:25.436Z,8.79
2019-03-09T09:57:32.812Z,8.71
2019-03-09T09:59:40.310Z,8.83
2019-03-09T10:01:47.914Z,8.93
2019-03-09T10:03:55.525Z,9.13
2019-03-09T10:06:03.124Z,9.48
2019-03-09T10:08:10.629Z,9.66
2019-03-09T10:10:19.225Z,9.56
2019-03-09T10:12:26.677Z,9.85
2019-03-09T10:14:34.045Z,9.86
2019-03-09T10:16:41.397Z,9.80
2019-03-09T10:18:48.814Z,9.97
2019-03-09T10:20:56.133Z,9.99
2019-03-09T10:23:04.988Z,10.35
2019-03-09T10:25:12.891Z,10.24
2019-03-09T10:27:20.424Z,10.35
2019-03-09T10:29:28.034Z,10.28
2019-03-09T10:31:35.833Z,10.46
2019-03-09T10:33:43.283Z,10.40
2019-03-09T10:35:50.709Z,10.37
2019-03-09T10:37:58.201Z,10.15
2019-03-09T10:40:06.083Z,9.98
2019-03-09T10:42:13.599Z,9.89
2019-03-09T10:44:21.348Z,9.91
2019-03-09T10:46:28.723Z,9.93
2019-03-09T10:48:36.271Z,9.84
2019-03-09T10:50:43.665Z,10.00
2019-03-09T10:52:51.302Z,10.15
2019-03-09T10:54:58.740Z,10.06
2019-03-09T10:57:06.148Z,10.05
2019-03-09T10:59:13.709Z,9.96
2019-03-09T11:01:21.174Z,9.92
2019-03-09T11:03:28.643Z,9.82
2019-03-09T11:05:36.051Z,9.85
2019-03-09T11:07:43.931Z,9.81
2019-03-09T11:09:51.926Z,9.81
2019-03-09T11:11:59.396Z,9.80
2019-03-09T11:14:06.989Z,9.78
2019-03-09T11:16:14.500Z,9.80
2019-03-09T11:18:22.074Z,9.82
2019-03-09T11:20:29.432Z,9.86
2019-03-09T11:22:36.823Z,9.88
2019-03-09T11:24:44.274Z,9.99
2019-03-09T11:26:51.725Z,10.02
2019-03-09T11:28:59.136Z,10.04
2019-03-09T11:31:06.758Z,10.09
2019-03-09T11:33:14.175Z,10.14
2019-03-09T11:35:22.539Z,10.14
2019-03-09T11:37:30.112Z,10.08
2019-03-09T11:39:37.502Z,10.09
2019-03-09T11:41:44.880Z,10.10
2019-03-09T11:43:52.349Z,10.11
2019-03-09T11:45:59.763Z,10.02
2019-03-09T11:48:07.375Z,9.97
2019-03-09T11:50:15.959Z,9.96
2019-03-09T11:52:23.428Z,9.95
2019-03-09T11:54:30.898Z,9.94
2019-03-09T11:56:38.425Z,9.88
2019-03-09T11:58:45.940Z,9.94
2019-03-09T12:00:53.461Z,9.92
2019-03-09T12:03:01.146Z,9.98
2019-03-09T12:05:09.755Z,9.91
2019-03-09T12:07:17.652Z,9.89
2019-03-09T12:09:25.227Z,9.95
2019-03-09T12:11:33.566Z,9.96
2019-03-09T12:13:41.094Z,9.94
2019-03-09T12:15:50.415Z,9.87
2019-03-09T12:17:58.081Z,9.91
2019-03-09T12:20:06.698Z,9.94
2019-03-09T12:22:14.191Z,9.94
2019-03-09T12:24:21.703Z,9.84
2019-03-09T12:26:29.176Z,9.83
2019-03-09T12:28:36.732Z,9.87
2019-03-09T12:30:44.246Z,9.76
2019-03-09T12:32:51.742Z,9.81
2019-03-09T12:34:59.307Z,9.85
2019-03-09T12:37:06.723Z,9.67
2019-03-09T12:39:14.330Z,9.53
2019-03-09T12:41:21.872Z,8.61
2019-03-09T12:43:29.344Z,8.04
2019-03-09T12:45:36.749Z,7.82
2019-03-09T12:47:44.168Z,7.57
2019-03-09T12:49:51.664Z,7.44
2019-03-09T12:51:59.108Z,7.39
2019-03-09T12:54:07.504Z,7.23
2019-03-09T12:56:15.842Z,7.07
2019-03-09T12:58:23.396Z,7.08
2019-03-09T13:00:31.403Z,7.06
2019-03-09T13:02:38.954Z,6.92
2019-03-09T13:04:48.964Z,6.95
2019-03-09T13:06:56.458Z,6.84
2019-03-09T13:09:04.936Z,6.83
2019-03-09T13:11:12.711Z,6.74
2019-03-09T13:13:20.615Z,6.78
2019-03-09T13:15:28.355Z,6.72
2019-03-09T13:17:36.924Z,6.63
2019-03-09T13:19:44.953Z,6.60
2019-03-09T13:21:53.100Z,6.39
2019-03-09T13:24:01.010Z,6.24
2019-03-09T13:26:09.417Z,6.17
2019-03-09T13:28:18.515Z,6.05
2019-03-09T13:30:26.330Z,5.94
2019-03-09T13:32:33.750Z,5.94
2019-03-09T13:34:41.259Z,5.96
2019-03-09T13:36:48.902Z,5.98
2019-03-09T13:38:56.487Z,5.93
2019-03-09T13:41:05.052Z,5.85
2019-03-09T13:43:12.677Z,5.80
2019-03-09T13:45:20.689Z,5.83
2019-03-09T13:47:28.459Z,5.85
2019-03-09T13:49:36.142Z,5.86
2019-03-09T13:51:43.762Z,5.86
2019-03-09T13:53:52.445Z,5.89
2019-03-09T13:56:00.648Z,6.00
2019-03-09T13:58:08.477Z,6.05
2019-03-09T14:00:17.279Z,6.05
2019-03-09T14:02:25.034Z,6.07
2019-03-09T14:04:33.000Z,6.14
2019-03-09T14:06:40.882Z,6.24
2019-03-09T14:08:48.567Z,6.21
2019-03-09T14:10:56.117Z,6.31
2019-03-09T14:13:03.575Z,6.30
2019-03-09T14:15:13.809Z,6.36
2019-03-09T14:17:21.603Z,6.34
2019-03-09T14:19:29.169Z,6.39
2019-03-09T14:21:36.870Z,6.39
2019-03-09T14:23:44.630Z,6.44
2019-03-09T14:25:52.610Z,6.43
2019-03-09T14:28:02.050Z,6.46
2019-03-09T14:30:13.572Z,6.51
2019-03-09T14:32:21.560Z,6.53
2019-03-09T14:34:29.349Z,6.69
2019-03-09T14:36:37.150Z,6.74
2019-03-09T14:38:45.244Z,6.81
2019-03-09T14:40:52.909Z,6.83
2019-03-09T14:43:00.393Z,6.84
2019-03-09T14:45:11.431Z,6.81
2019-03-09T14:47:19.017Z,6.82
2019-03-09T14:49:26.444Z,6.84
2019-03-09T14:51:34.082Z,6.84
2019-03-09T14:53:42.674Z,6.52
2019-03-09T14:55:50.262Z,5.88
2019-03-09T14:57:57.798Z,5.48
2019-03-09T15:00:06.141Z,4.86
2019-03-09T15:02:14.064Z,4.25
2019-03-09T15:04:22.071Z,3.96
2019-03-09T15:06:30.089Z,3.87
2019-03-09T15:08:37.984Z,4.01
2019-03-09T15:10:46.047Z,4.21
2019-03-09T15:12:54.750Z,4.22
2019-03-09T15:15:02.845Z,4.33
2019-03-09T15:17:10.566Z,4.47
2019-03-09T15:19:18.280Z,4.51
2019-03-09T15:21:26.005Z,4.64
2019-03-09T15:23:34.084Z,4.59
2019-03-09T15:25:44.712Z,4.62
2019-03-09T15:27:52.631Z,4.61
2019-03-09T15:30:02.536Z,4.63
2019-03-09T15:32:10.437Z,4.78
2019-03-09T15:34:18.983Z,4.89
2019-03-09T15:36:26.949Z,4.90
2019-03-09T15:38:34.578Z,5.06
2019-03-09T15:40:42.039Z,5.06
2019-03-09T15:42:49.814Z,5.06
2019-03-09T15:44:57.704Z,5.09
2019-03-09T15:47:06.038Z,5.08
2019-03-09T15:49:13.759Z,5.07
2019-03-09T15:51:21.360Z,5.14
2019-03-09T15:53:28.930Z,5.10
2019-03-09T15:55:36.509Z,5.11
2019-03-09T15:57:44.463Z,5.00
2019-03-09T15:59:52.540Z,4.79
2019-03-09T16:02:04.845Z,4.68
2019-03-09T16:04:12.489Z,4.47
2019-03-09T16:06:20.225Z,4.32
2019-03-09T16:08:27.762Z,4.40
2019-03-09T16:10:35.454Z,4.53
2019-03-09T16:12:43.353Z,4.35
2019-03-09T16:14:51.352Z,4.35
2019-03-09T16:16:59.268Z,4.36
2019-03-09T16:19:06.717Z,4.42
2019-03-09T16:21:15.018Z,4.53
2019-03-09T16:23:22.485Z,4.59
2019-03-09T16:25:29.926Z,4.27
2019-03-09T16:27:37.418Z,4.23
2019-03-09T16:29:45.091Z,4.24
2019-03-09T16:31:52.680Z,4.28
2019-03-09T16:34:00.028Z,4.21
2019-03-09T16:36:07.664Z,4.42
2019-03-09T16:38:15.137Z,4.12
2019-03-09T16:40:23.043Z,4.04
2019-03-09T16:42:30.572Z,3.99
2019-03-09T16:44:38.182Z,3.88
2019-03-09T16:46:45.745Z,3.86
2019-03-09T16:48:54.924Z,3.75
2019-03-09T16:51:02.494Z,3.73
2019-03-09T16:53:09.986Z,3.77
2019-03-09T16:55:17.780Z,3.74
2019-03-09T16:57:25.266Z,3.66
2019-03-09T16:59:32.906Z,3.47
2019-03-09T17:01:40.439Z,3.46
2019-03-09T17:03:47.973Z,3.43
2019-03-09T17:05:55.555Z,3.42
2019-03-09T17:08:03.039Z,3.47
2019-03-09T17:10:11.217Z,3.40
2019-03-09T17:12:18.680Z,3.35
2019-03-09T17:14:26.334Z,3.38
2019-03-09T17:16:33.806Z,3.45
2019-03-09T17:18:41.462Z,3.39
2019-03-09T17:20:48.949Z,3.43
2019-03-09T17:22:56.456Z,3.49
2019-03-09T17:25:04.033Z,3.44
2019-03-09T17:27:13.593Z,3.44
2019-03-09T17:29:21.152Z,3.40
2019-03-09T17:31:28.688Z,3.42
2019-03-09T17:33:36.278Z,3.36
2019-03-09T17:35:44.411Z,3.30
2019-03-09T17:37:52.058Z,3.30
2019-03-09T17:39:59.499Z,3.42
2019-03-09T17:42:07.025Z,3.42
2019-03-09T17:44:14.585Z,3.29
2019-03-09T17:46:22.055Z,3.50
2019-03-09T17:48:29.504Z,3.49
2019-03-09T17:50:36.889Z,3.49
2019-03-09T17:52:44.349Z,3.51
2019-03-09T17:54:51.757Z,3.47
2019-03-09T17:56:59.629Z,3.51
2019-03-09T17:59:07.200Z,3.45
2019-03-09T18:01:14.718Z,3.54
2019-03-09T18:03:22.214Z,3.56
2019-03-09T18:05:29.516Z,3.55
2019-03-09T18:07:36.860Z,3.56
2019-03-09T18:09:44.772Z,3.58
2019-03-09T18:11:52.326Z,3.62
2019-03-09T18:14:06.985Z,3.67
2019-03-09T18:16:09.698Z,3.71
2019-03-09T18:18:17.911Z,3.75
2019-03-09T18:20:25.721Z,3.77
2019-03-09T18:22:33.511Z,3.82
2019-03-09T18:24:41.154Z,4.02
2019-03-09T18:26:48.758Z,4.02
2019-03-09T18:28:56.597Z,4.00
2019-03-09T18:31:04.289Z,4.07
2019-03-09T18:33:12.422Z,4.12
2019-03-09T18:35:20.339Z,4.14
2019-03-09T18:37:27.995Z,4.13
2019-03-09T18:39:35.751Z,4.18
2019-03-09T18:41:43.281Z,4.25
2019-03-09T18:43:51.486Z,4.28
2019-03-09T18:45:59.405Z,4.28
2019-03-09T18:48:07.199Z,4.33
2019-03-09T18:50:15.505Z,4.34
2019-03-09T18:52:23.009Z,4.35
2019-03-09T18:54:30.755Z,4.45
2019-03-09T18:56:38.501Z,4.40
2019-03-09T18:58:46.316Z,4.40
2019-03-09T19:00:54.418Z,4.35
2019-03-09T19:03:01.826Z,4.35
2019-03-09T19:05:09.618Z,4.46
2019-03-09T19:07:17.175Z,4.42
2019-03-09T19:09:24.979Z,4.39
2019-03-09T19:11:32.786Z,4.40
2019-03-09T19:13:40.746Z,4.43
2019-03-09T19:15:48.730Z,4.47
2019-03-09T19:17:56.437Z,4.43
2019-03-09T19:20:03.978Z,4.44
2019-03-09T19:22:11.423Z,4.41
2019-03-09T19:24:20.958Z,4.42
2019-03-09T19:26:30.010Z,4.43
2019-03-09T19:28:38.641Z,4.39
2019-03-09T19:30:47.403Z,4.42
2019-03-09T19:33:00.427Z,4.44
2019-03-09T19:35:05.522Z,4.44
2019-03-09T19:37:13.503Z,4.49
2019-03-09T19:39:21.718Z,4.57
2019-03-09T19:41:30.180Z,4.58
2019-03-09T19:43:37.963Z,4.58
2019-03-09T19:45:46.691Z,4.57
2019-03-09T19:47:55.129Z,4.65
2019-03-09T19:50:03.764Z,4.63
2019-03-09T19:52:13.331Z,4.63
2019-03-09T19:54:21.221Z,4.65
2019-03-09T19:56:29.323Z,4.69
2019-03-09T19:58:36.825Z,4.71
2019-03-09T20:00:45.090Z,4.68
2019-03-09T20:02:53.695Z,4.61
2019-03-09T20:05:01.629Z,4.81
2019-03-09T20:07:12.305Z,4.81
2019-03-09T20:09:20.479Z,4.90
2019-03-09T20:11:28.224Z,4.99
2019-03-09T20:13:36.251Z,4.93
2019-03-09T20:15:45.210Z,4.92
2019-03-09T20:17:53.345Z,4.94
2019-03-09T20:20:00.861Z,4.95
2019-03-09T20:22:08.323Z,4.97
2019-03-09T20:24:16.553Z,4.97
2019-03-09T20:26:24.519Z,5.05
2019-03-09T20:28:32.122Z,5.07
2019-03-09T20:30:39.725Z,5.18
2019-03-09T20:32:47.416Z,5.27
2019-03-09T20:34:55.058Z,5.33
2019-03-09T20:37:02.671Z,5.33
2019-03-09T20:39:10.338Z,5.39
2019-03-09T20:41:19.223Z,5.43
2019-03-09T20:43:26.717Z,5.49
2019-03-09T20:45:34.464Z,5.49
2019-03-09T20:47:43.154Z,5.50
2019-03-09T20:49:50.741Z,5.53
2019-03-09T20:51:58.173Z,5.64
2019-03-09T20:54:06.056Z,5.68
2019-03-09T20:56:13.650Z,5.59
2019-03-09T20:58:21.270Z,5.55
2019-03-09T21:00:28.949Z,5.54
2019-03-09T21:02:36.498Z,5.60
2019-03-09T21:04:44.195Z,5.64
2019-03-09T21:06:52.378Z,5.83
2019-03-09T21:09:00.671Z,5.74
2019-03-09T21:11:08.267Z,5.70
2019-03-09T21:13:16.882Z,5.69
2019-03-09T21:15:24.474Z,5.66
2019-03-09T21:17:31.941Z,5.62
2019-03-09T21:19:39.540Z,5.60
2019-03-09T21:21:47.151Z,5.62
2019-03-09T21:23:54.660Z,5.57
2019-03-09T21:26:03.069Z,5.59
2019-03-09T21:28:10.643Z,5.56
2019-03-09T21:30:18.411Z,5.54
2019-03-09T21:32:26.875Z,5.51
2019-03-09T21:34:34.300Z,5.48
2019-03-09T21:36:41.717Z,5.43
2019-03-09T21:38:49.300Z,5.48
2019-03-09T21:40:56.720Z,5.39
2019-03-09T21:43:04.193Z,5.44
2019-03-09T21:45:11.926Z,5.46
2019-03-09T21:47:19.746Z,5.42
2019-03-09T21:49:27.186Z,5.46
2019-03-09T21:51:35.395Z,5.44
2019-03-09T21:53:42.950Z,5.40
2019-03-09T21:55:50.915Z,5.36
2019-03-09T21:57:58.986Z,5.31
2019-03-09T22:00:07.719Z,5.27
2019-03-09T22:02:15.145Z,5.29
2019-03-09T22:04:23.098Z,5.29
2019-03-09T22:06:30.968Z,5.26
2019-03-09T22:08:38.442Z,5.25
2019-03-09T22:10:46.111Z,5.22
2019-03-09T22:12:55.010Z,5.17
2019-03-09T22:15:02.994Z,5.17
2019-03-09T22:17:10.406Z,5.15
2019-03-09T22:19:17.978Z,5.17
2019-03-09T22:21:26.385Z,5.23
2019-03-09T22:23:43.678Z,5.24
2019-03-09T22:25:43.388Z,5.20
2019-03-09T22:27:50.896Z,5.25
2019-03-09T22:29:58.744Z,5.24
2019-03-09T22:32:06.412Z,5.26
2019-03-09T22:34:13.849Z,5.22
2019-03-09T22:36:22.357Z,5.20
2019-03-09T22:38:29.951Z,5.22
2019-03-09T22:40:37.522Z,5.20
2019-03-09T22:42:45.377Z,5.15
2019-03-09T22:44:53.097Z,5.14
2019-03-09T22:47:10.768Z,5.10
2019-03-09T22:49:09.755Z,5.10
2019-03-09T22:51:17.234Z,5.09
2019-03-09T22:53:24.855Z,5.09
2019-03-09T22:55:32.427Z,5.09
2019-03-09T22:57:39.821Z,5.06
2019-03-09T22:59:47.321Z,5.01
2019-03-09T23:01:55.243Z,5.00
2019-03-09T23:04:02.774Z,5.00
2019-03-09T23:06:10.437Z,5.03
2019-03-09T23:08:17.813Z,5.01
2019-03-09T23:10:25.356Z,5.07
2019-03-09T23:12:33.079Z,5.09
2019-03-09T23:14:40.554Z,5.08
2019-03-09T23:16:48.021Z,5.11
2019-03-09T23:18:55.498Z,5.12
2019-03-09T23:21:02.968Z,5.11
2019-03-09T23:23:10.430Z,5.10
2019-03-09T23:25:18.150Z,5.09
2019-03-09T23:27:26.159Z,5.09
2019-03-09T23:29:33.593Z,5.06
2019-03-09T23:31:41.540Z,5.05
2019-03-09T23:33:48.996Z,5.02
2019-03-09T23:35:56.665Z,5.08
2019-03-09T23:38:04.024Z,5.04
2019-03-09T23:40:11.841Z,5.01
2019-03-09T23:42:19.355Z,4.97
2019-03-09T23:44:27.157Z,4.98
2019-03-09T23:46:34.599Z,5.00
2019-03-09T23:48:42.368Z,5.05
2019-03-09T23:50:49.856Z,5.05
2019-03-09T23:52:57.501Z,5.06
2019-03-09T23:55:05.069Z,5.09
2019-03-09T23:57:12.529Z,5.10
2019-03-09T23:59:20.009Z,5.06
